sensor_id;sensor_type;location;lat;lon;timestamp;P1;durP1;ratioP1;P2;durP2;ratioP2
78854;SDS011;68206;59.956;30.234;2023-04-24T00:00:01;4.50;;;2.40;;
78854;SDS011;68206;59.956;30.234;2023-04-24T00:02:32;4.18;;;2.30;;
78854;SDS011;68206;59.956;30.234;2023-04-24T00:05:01;4.28;;;2.45;;
78854;SDS011;68206;59.956;30.234;2023-04-24T00:07:29;7.55;;;2.92;;
78854;SDS011;68206;59.956;30.234;2023-04-24T00:09:57;4.10;;;2.58;;
78854;SDS011;68206;59.956;30.234;2023-04-24T00:12:27;6.80;;;3.28;;
78854;SDS011;68206;59.956;30.234;2023-04-24T00:14:58;5.43;;;2.95;;
78854;SDS011;68206;59.956;30.234;2023-04-24T00:17:26;4.78;;;3.00;;
78854;SDS011;68206;59.956;30.234;2023-04-24T00:19:54;5.68;;;3.10;;
78854;SDS011;68206;59.956;30.234;2023-04-24T00:22:25;5.57;;;2.88;;
78854;SDS011;68206;59.956;30.234;2023-04-24T00:24:53;10.38;;;3.20;;
78854;SDS011;68206;59.956;30.234;2023-04-24T00:27:22;5.18;;;2.95;;
78854;SDS011;68206;59.956;30.234;2023-04-24T00:29:51;7.60;;;3.42;;
78854;SDS011;68206;59.956;30.234;2023-04-24T00:32:19;8.68;;;3.60;;
78854;SDS011;68206;59.956;30.234;2023-04-24T00:34:48;9.52;;;3.85;;
78854;SDS011;68206;59.956;30.234;2023-04-24T00:37:16;7.70;;;3.45;;
78854;SDS011;68206;59.956;30.234;2023-04-24T00:39:44;6.20;;;4.03;;
78854;SDS011;68206;59.956;30.234;2023-04-24T00:42:12;7.50;;;3.58;;
78854;SDS011;68206;59.956;30.234;2023-04-24T00:44:40;10.65;;;3.95;;
78854;SDS011;68206;59.956;30.234;2023-04-24T00:47:10;6.13;;;3.47;;
78854;SDS011;68206;59.956;30.234;2023-04-24T00:49:39;7.40;;;3.83;;
78854;SDS011;68206;59.956;30.234;2023-04-24T00:52:08;7.30;;;3.28;;
78854;SDS011;68206;59.956;30.234;2023-04-24T00:54:37;6.15;;;3.40;;
78854;SDS011;68206;59.956;30.234;2023-04-24T00:57:05;9.63;;;3.63;;
78854;SDS011;68206;59.956;30.234;2023-04-24T00:59:33;7.43;;;3.10;;
78854;SDS011;68206;59.956;30.234;2023-04-24T01:02:03;7.07;;;3.47;;
78854;SDS011;68206;59.956;30.234;2023-04-24T01:04:33;8.90;;;3.50;;
78854;SDS011;68206;59.956;30.234;2023-04-24T01:07:01;9.35;;;3.88;;
78854;SDS011;68206;59.956;30.234;2023-04-24T01:09:29;7.70;;;3.45;;
78854;SDS011;68206;59.956;30.234;2023-04-24T01:11:57;9.02;;;3.25;;
78854;SDS011;68206;59.956;30.234;2023-04-24T01:14:27;6.97;;;2.72;;
78854;SDS011;68206;59.956;30.234;2023-04-24T01:16:55;8.40;;;3.08;;
78854;SDS011;68206;59.956;30.234;2023-04-24T01:19:24;6.22;;;3.17;;
78854;SDS011;68206;59.956;30.234;2023-04-24T01:21:53;7.00;;;3.50;;
78854;SDS011;68206;59.956;30.234;2023-04-24T01:24:27;5.50;;;2.50;;
78854;SDS011;68206;59.956;30.234;2023-04-24T01:26:56;5.95;;;2.63;;
78854;SDS011;68206;59.956;30.234;2023-04-24T01:29:24;5.93;;;2.75;;
78854;SDS011;68206;59.956;30.234;2023-04-24T01:31:52;4.82;;;2.90;;
78854;SDS011;68206;59.956;30.234;2023-04-24T01:34:22;6.32;;;2.70;;
78854;SDS011;68206;59.956;30.234;2023-04-24T01:36:50;5.65;;;2.60;;
78854;SDS011;68206;59.956;30.234;2023-04-24T01:39:18;5.35;;;2.92;;
78854;SDS011;68206;59.956;30.234;2023-04-24T01:41:51;8.77;;;3.05;;
78854;SDS011;68206;59.956;30.234;2023-04-24T01:44:20;4.28;;;2.47;;
78854;SDS011;68206;59.956;30.234;2023-04-24T01:46:48;6.20;;;2.80;;
78854;SDS011;68206;59.956;30.234;2023-04-24T01:49:17;6.65;;;2.70;;
78854;SDS011;68206;59.956;30.234;2023-04-24T01:51:45;5.07;;;2.92;;
78854;SDS011;68206;59.956;30.234;2023-04-24T01:54:13;6.07;;;3.28;;
78854;SDS011;68206;59.956;30.234;2023-04-24T01:56:42;6.18;;;3.35;;
78854;SDS011;68206;59.956;30.234;2023-04-24T01:59:12;6.53;;;2.78;;
78854;SDS011;68206;59.956;30.234;2023-04-24T02:01:41;7.85;;;2.75;;
78854;SDS011;68206;59.956;30.234;2023-04-24T02:04:09;6.00;;;2.80;;
78854;SDS011;68206;59.956;30.234;2023-04-24T02:06:37;5.32;;;2.90;;
78854;SDS011;68206;59.956;30.234;2023-04-24T02:09:06;4.43;;;2.28;;
78854;SDS011;68206;59.956;30.234;2023-04-24T02:11:34;4.38;;;2.72;;
78854;SDS011;68206;59.956;30.234;2023-04-24T02:14:02;7.55;;;2.47;;
78854;SDS011;68206;59.956;30.234;2023-04-24T02:16:32;6.68;;;3.05;;
78854;SDS011;68206;59.956;30.234;2023-04-24T02:19:02;4.35;;;2.90;;
78854;SDS011;68206;59.956;30.234;2023-04-24T02:21:30;5.65;;;2.60;;
78854;SDS011;68206;59.956;30.234;2023-04-24T02:24:00;5.75;;;3.25;;
78854;SDS011;68206;59.956;30.234;2023-04-24T02:26:28;7.70;;;2.97;;
78854;SDS011;68206;59.956;30.234;2023-04-24T02:28:58;6.38;;;3.40;;
78854;SDS011;68206;59.956;30.234;2023-04-24T02:31:26;5.68;;;3.13;;
78854;SDS011;68206;59.956;30.234;2023-04-24T02:33:56;8.35;;;4.35;;
78854;SDS011;68206;59.956;30.234;2023-04-24T02:36:24;6.10;;;3.35;;
78854;SDS011;68206;59.956;30.234;2023-04-24T02:38:52;5.50;;;3.13;;
78854;SDS011;68206;59.956;30.234;2023-04-24T02:41:20;9.68;;;3.40;;
78854;SDS011;68206;59.956;30.234;2023-04-24T02:43:49;7.50;;;3.55;;
78854;SDS011;68206;59.956;30.234;2023-04-24T02:46:17;9.70;;;3.85;;
78854;SDS011;68206;59.956;30.234;2023-04-24T02:48:45;4.47;;;2.95;;
78854;SDS011;68206;59.956;30.234;2023-04-24T02:51:14;8.93;;;3.10;;
78854;SDS011;68206;59.956;30.234;2023-04-24T02:53:42;8.05;;;3.80;;
78854;SDS011;68206;59.956;30.234;2023-04-24T02:56:10;5.18;;;2.97;;
78854;SDS011;68206;59.956;30.234;2023-04-24T02:58:39;8.07;;;3.03;;
78854;SDS011;68206;59.956;30.234;2023-04-24T03:01:09;7.95;;;2.88;;
78854;SDS011;68206;59.956;30.234;2023-04-24T03:03:37;5.68;;;2.70;;
78854;SDS011;68206;59.956;30.234;2023-04-24T03:06:06;12.10;;;4.00;;
78854;SDS011;68206;59.956;30.234;2023-04-24T03:08:37;6.88;;;3.38;;
78854;SDS011;68206;59.956;30.234;2023-04-24T03:11:05;4.55;;;3.15;;
78854;SDS011;68206;59.956;30.234;2023-04-24T03:13:34;11.02;;;3.10;;
78854;SDS011;68206;59.956;30.234;2023-04-24T03:16:02;6.30;;;3.22;;
78854;SDS011;68206;59.956;30.234;2023-04-24T03:18:30;8.25;;;3.83;;
78854;SDS011;68206;59.956;30.234;2023-04-24T03:20:59;8.30;;;3.05;;
78854;SDS011;68206;59.956;30.234;2023-04-24T03:23:28;6.70;;;2.92;;
78854;SDS011;68206;59.956;30.234;2023-04-24T03:25:58;10.73;;;3.03;;
78854;SDS011;68206;59.956;30.234;2023-04-24T03:28:26;7.45;;;3.15;;
78854;SDS011;68206;59.956;30.234;2023-04-24T03:30:59;4.38;;;2.40;;
78854;SDS011;68206;59.956;30.234;2023-04-24T03:33:32;5.97;;;3.20;;
78854;SDS011;68206;59.956;30.234;2023-04-24T03:36:00;4.75;;;2.90;;
78854;SDS011;68206;59.956;30.234;2023-04-24T03:38:36;6.95;;;2.67;;
78854;SDS011;68206;59.956;30.234;2023-04-24T03:41:24;8.73;;;3.33;;
78854;SDS011;68206;59.956;30.234;2023-04-24T03:43:55;4.43;;;3.03;;
78854;SDS011;68206;59.956;30.234;2023-04-24T03:46:25;9.57;;;3.38;;
78854;SDS011;68206;59.956;30.234;2023-04-24T03:48:57;7.13;;;3.15;;
78854;SDS011;68206;59.956;30.234;2023-04-24T03:54:13;6.85;;;3.33;;
78854;SDS011;68206;59.956;30.234;2023-04-24T03:56:42;5.53;;;2.83;;
78854;SDS011;68206;59.956;30.234;2023-04-24T03:59:11;10.88;;;4.47;;
78854;SDS011;68206;59.956;30.234;2023-04-24T04:01:42;7.63;;;3.70;;
78854;SDS011;68206;59.956;30.234;2023-04-24T04:04:16;8.57;;;3.03;;
78854;SDS011;68206;59.956;30.234;2023-04-24T04:06:44;6.90;;;3.15;;
78854;SDS011;68206;59.956;30.234;2023-04-24T04:09:14;15.05;;;3.78;;
78854;SDS011;68206;59.956;30.234;2023-04-24T04:11:44;11.23;;;3.58;;
78854;SDS011;68206;59.956;30.234;2023-04-24T04:14:12;6.55;;;2.83;;
78854;SDS011;68206;59.956;30.234;2023-04-24T04:16:43;5.78;;;3.20;;
78854;SDS011;68206;59.956;30.234;2023-04-24T04:19:12;9.88;;;2.90;;
78854;SDS011;68206;59.956;30.234;2023-04-24T04:21:41;12.77;;;3.55;;
78854;SDS011;68206;59.956;30.234;2023-04-24T04:24:18;9.55;;;3.70;;
78854;SDS011;68206;59.956;30.234;2023-04-24T04:26:48;5.95;;;3.42;;
78854;SDS011;68206;59.956;30.234;2023-04-24T04:29:28;8.55;;;3.63;;
78854;SDS011;68206;59.956;30.234;2023-04-24T04:31:58;6.45;;;3.60;;
78854;SDS011;68206;59.956;30.234;2023-04-24T04:34:27;8.20;;;3.55;;
78854;SDS011;68206;59.956;30.234;2023-04-24T04:36:56;10.27;;;3.13;;
78854;SDS011;68206;59.956;30.234;2023-04-24T04:39:41;8.13;;;3.67;;
78854;SDS011;68206;59.956;30.234;2023-04-24T04:42:17;15.25;;;4.07;;
78854;SDS011;68206;59.956;30.234;2023-04-24T04:44:45;6.47;;;3.20;;
78854;SDS011;68206;59.956;30.234;2023-04-24T04:47:17;7.93;;;3.53;;
78854;SDS011;68206;59.956;30.234;2023-04-24T04:52:22;6.28;;;3.25;;
78854;SDS011;68206;59.956;30.234;2023-04-24T04:55:05;11.45;;;3.38;;
78854;SDS011;68206;59.956;30.234;2023-04-24T04:57:59;10.13;;;3.45;;
78854;SDS011;68206;59.956;30.234;2023-04-24T05:00:28;8.55;;;3.35;;
78854;SDS011;68206;59.956;30.234;2023-04-24T05:03:09;7.90;;;3.58;;
78854;SDS011;68206;59.956;30.234;2023-04-24T05:05:50;15.40;;;3.90;;
78854;SDS011;68206;59.956;30.234;2023-04-24T05:08:18;8.00;;;3.80;;
78854;SDS011;68206;59.956;30.234;2023-04-24T05:10:53;8.38;;;3.40;;
78854;SDS011;68206;59.956;30.234;2023-04-24T05:13:23;7.60;;;3.85;;
78854;SDS011;68206;59.956;30.234;2023-04-24T05:16:07;6.32;;;3.75;;
78854;SDS011;68206;59.956;30.234;2023-04-24T05:18:37;13.88;;;4.22;;
78854;SDS011;68206;59.956;30.234;2023-04-24T05:21:07;6.72;;;3.35;;
78854;SDS011;68206;59.956;30.234;2023-04-24T05:23:37;6.03;;;3.33;;
78854;SDS011;68206;59.956;30.234;2023-04-24T05:26:05;10.48;;;3.92;;
78854;SDS011;68206;59.956;30.234;2023-04-24T05:28:35;14.63;;;3.72;;
78854;SDS011;68206;59.956;30.234;2023-04-24T05:31:08;11.80;;;4.25;;
78854;SDS011;68206;59.956;30.234;2023-04-24T05:33:36;9.65;;;3.22;;
78854;SDS011;68206;59.956;30.234;2023-04-24T05:36:05;11.77;;;4.10;;
78854;SDS011;68206;59.956;30.234;2023-04-24T05:38:34;9.32;;;3.35;;
78854;SDS011;68206;59.956;30.234;2023-04-24T05:41:02;6.25;;;3.13;;
78854;SDS011;68206;59.956;30.234;2023-04-24T05:43:30;9.63;;;3.78;;
78854;SDS011;68206;59.956;30.234;2023-04-24T05:46:00;9.25;;;3.95;;
78854;SDS011;68206;59.956;30.234;2023-04-24T05:48:28;6.47;;;3.83;;
78854;SDS011;68206;59.956;30.234;2023-04-24T05:51:00;8.10;;;3.55;;
78854;SDS011;68206;59.956;30.234;2023-04-24T05:53:28;9.25;;;3.83;;
78854;SDS011;68206;59.956;30.234;2023-04-24T05:55:57;15.23;;;4.00;;
78854;SDS011;68206;59.956;30.234;2023-04-24T05:58:26;10.00;;;3.35;;
78854;SDS011;68206;59.956;30.234;2023-04-24T06:00:54;10.38;;;4.05;;
78854;SDS011;68206;59.956;30.234;2023-04-24T06:03:23;16.05;;;4.03;;
78854;SDS011;68206;59.956;30.234;2023-04-24T06:05:52;11.05;;;3.45;;
78854;SDS011;68206;59.956;30.234;2023-04-24T06:08:21;16.23;;;3.55;;
78854;SDS011;68206;59.956;30.234;2023-04-24T06:10:50;11.70;;;3.53;;
78854;SDS011;68206;59.956;30.234;2023-04-24T06:13:20;13.32;;;3.78;;
78854;SDS011;68206;59.956;30.234;2023-04-24T06:16:15;14.75;;;3.85;;
78854;SDS011;68206;59.956;30.234;2023-04-24T06:18:51;10.57;;;3.60;;
78854;SDS011;68206;59.956;30.234;2023-04-24T06:21:19;7.65;;;3.08;;
78854;SDS011;68206;59.956;30.234;2023-04-24T06:23:47;11.93;;;3.33;;
78854;SDS011;68206;59.956;30.234;2023-04-24T06:26:16;8.07;;;3.53;;
78854;SDS011;68206;59.956;30.234;2023-04-24T06:28:44;14.57;;;3.50;;
78854;SDS011;68206;59.956;30.234;2023-04-24T06:31:12;16.17;;;4.07;;
78854;SDS011;68206;59.956;30.234;2023-04-24T06:33:40;17.20;;;3.35;;
78854;SDS011;68206;59.956;30.234;2023-04-24T06:36:10;11.43;;;4.22;;
78854;SDS011;68206;59.956;30.234;2023-04-24T06:38:38;11.48;;;3.92;;
78854;SDS011;68206;59.956;30.234;2023-04-24T06:41:06;12.60;;;3.35;;
78854;SDS011;68206;59.956;30.234;2023-04-24T06:43:35;8.85;;;3.08;;
78854;SDS011;68206;59.956;30.234;2023-04-24T06:49:09;11.55;;;3.53;;
78854;SDS011;68206;59.956;30.234;2023-04-24T06:51:38;9.75;;;3.83;;
78854;SDS011;68206;59.956;30.234;2023-04-24T06:54:06;14.25;;;4.25;;
78854;SDS011;68206;59.956;30.234;2023-04-24T06:56:34;13.00;;;4.05;;
78854;SDS011;68206;59.956;30.234;2023-04-24T06:59:02;10.65;;;4.13;;
78854;SDS011;68206;59.956;30.234;2023-04-24T07:01:30;9.20;;;3.70;;
78854;SDS011;68206;59.956;30.234;2023-04-24T07:03:58;12.93;;;3.72;;
78854;SDS011;68206;59.956;30.234;2023-04-24T07:06:27;13.93;;;3.97;;
78854;SDS011;68206;59.956;30.234;2023-04-24T07:08:59;26.17;;;4.38;;
78854;SDS011;68206;59.956;30.234;2023-04-24T07:11:28;18.23;;;4.13;;
78854;SDS011;68206;59.956;30.234;2023-04-24T07:13:56;16.40;;;4.07;;
78854;SDS011;68206;59.956;30.234;2023-04-24T07:16:24;13.32;;;3.67;;
78854;SDS011;68206;59.956;30.234;2023-04-24T07:18:52;6.75;;;3.83;;
78854;SDS011;68206;59.956;30.234;2023-04-24T07:21:20;11.80;;;3.33;;
78854;SDS011;68206;59.956;30.234;2023-04-24T07:23:48;16.17;;;3.90;;
78854;SDS011;68206;59.956;30.234;2023-04-24T07:26:18;11.60;;;3.78;;
78854;SDS011;68206;59.956;30.234;2023-04-24T07:28:47;10.77;;;3.95;;
78854;SDS011;68206;59.956;30.234;2023-04-24T07:31:15;15.50;;;3.80;;
78854;SDS011;68206;59.956;30.234;2023-04-24T07:33:44;21.80;;;4.57;;
78854;SDS011;68206;59.956;30.234;2023-04-24T07:36:12;10.65;;;3.85;;
78854;SDS011;68206;59.956;30.234;2023-04-24T07:38:43;18.75;;;3.83;;
78854;SDS011;68206;59.956;30.234;2023-04-24T07:41:11;18.92;;;4.03;;
78854;SDS011;68206;59.956;30.234;2023-04-24T07:43:41;26.58;;;3.60;;
78854;SDS011;68206;59.956;30.234;2023-04-24T18:32:14;23.30;;;10.50;;
78854;SDS011;68206;59.956;30.234;2023-04-24T18:34:42;26.83;;;11.75;;
78854;SDS011;68206;59.956;30.234;2023-04-24T18:37:10;21.70;;;10.02;;
78854;SDS011;68206;59.956;30.234;2023-04-24T18:39:38;21.73;;;9.98;;
78854;SDS011;68206;59.956;30.234;2023-04-24T18:42:06;13.63;;;8.43;;
78854;SDS011;68206;59.956;30.234;2023-04-24T18:44:34;19.58;;;9.30;;
78854;SDS011;68206;59.956;30.234;2023-04-24T18:47:04;22.17;;;9.23;;
78854;SDS011;68206;59.956;30.234;2023-04-24T18:49:35;20.35;;;9.70;;
78854;SDS011;68206;59.956;30.234;2023-04-24T18:52:04;20.52;;;8.95;;
78854;SDS011;68206;59.956;30.234;2023-04-24T18:54:32;15.82;;;9.25;;
78854;SDS011;68206;59.956;30.234;2023-04-24T18:57:00;16.33;;;10.48;;
78854;SDS011;68206;59.956;30.234;2023-04-24T18:59:28;16.35;;;8.95;;
78854;SDS011;68206;59.956;30.234;2023-04-24T19:01:56;28.48;;;9.35;;
78854;SDS011;68206;59.956;30.234;2023-04-24T19:04:24;14.05;;;8.95;;
78854;SDS011;68206;59.956;30.234;2023-04-24T19:06:54;16.42;;;8.88;;
78854;SDS011;68206;59.956;30.234;2023-04-24T19:09:33;13.35;;;7.95;;
78854;SDS011;68206;59.956;30.234;2023-04-24T19:12:01;21.23;;;9.63;;
78854;SDS011;68206;59.956;30.234;2023-04-24T19:14:32;25.73;;;10.63;;
78854;SDS011;68206;59.956;30.234;2023-04-24T19:17:00;23.23;;;11.35;;
78854;SDS011;68206;59.956;30.234;2023-04-24T19:19:28;53.50;;;16.52;;
78854;SDS011;68206;59.956;30.234;2023-04-24T19:21:59;48.40;;;12.70;;
78854;SDS011;68206;59.956;30.234;2023-04-24T19:24:27;38.70;;;12.30;;
78854;SDS011;68206;59.956;30.234;2023-04-24T19:26:58;30.10;;;11.75;;
78854;SDS011;68206;59.956;30.234;2023-04-24T19:29:27;28.13;;;11.13;;
78854;SDS011;68206;59.956;30.234;2023-04-24T19:31:55;22.92;;;9.65;;
78854;SDS011;68206;59.956;30.234;2023-04-24T19:34:24;35.42;;;11.98;;
78854;SDS011;68206;59.956;30.234;2023-04-24T19:36:52;36.63;;;11.68;;
78854;SDS011;68206;59.956;30.234;2023-04-24T19:39:22;36.97;;;12.85;;
78854;SDS011;68206;59.956;30.234;2023-04-24T19:41:50;24.42;;;10.82;;
78854;SDS011;68206;59.956;30.234;2023-04-24T19:44:18;18.00;;;10.25;;
78854;SDS011;68206;59.956;30.234;2023-04-24T19:46:46;33.17;;;10.82;;
78854;SDS011;68206;59.956;30.234;2023-04-24T19:49:14;17.70;;;10.25;;
78854;SDS011;68206;59.956;30.234;2023-04-24T19:51:42;22.23;;;10.15;;
78854;SDS011;68206;59.956;30.234;2023-04-24T19:54:11;25.75;;;12.45;;
78854;SDS011;68206;59.956;30.234;2023-04-24T19:56:41;16.23;;;9.40;;
78854;SDS011;68206;59.956;30.234;2023-04-24T19:59:09;15.38;;;9.95;;
78854;SDS011;68206;59.956;30.234;2023-04-24T20:01:37;22.05;;;8.80;;
78854;SDS011;68206;59.956;30.234;2023-04-24T20:04:07;16.63;;;9.43;;
78854;SDS011;68206;59.956;30.234;2023-04-24T20:06:37;21.45;;;10.73;;
78854;SDS011;68206;59.956;30.234;2023-04-24T20:09:05;18.80;;;9.52;;
78854;SDS011;68206;59.956;30.234;2023-04-24T20:11:33;15.63;;;8.35;;
78854;SDS011;68206;59.956;30.234;2023-04-24T20:14:03;16.95;;;9.15;;
78854;SDS011;68206;59.956;30.234;2023-04-24T20:16:31;18.70;;;9.70;;
78854;SDS011;68206;59.956;30.234;2023-04-24T20:18:59;16.35;;;9.80;;
78854;SDS011;68206;59.956;30.234;2023-04-24T20:21:27;37.30;;;10.38;;
78854;SDS011;68206;59.956;30.234;2023-04-24T20:23:56;16.70;;;9.23;;
78854;SDS011;68206;59.956;30.234;2023-04-24T20:26:24;29.45;;;13.23;;
78854;SDS011;68206;59.956;30.234;2023-04-24T20:28:52;29.50;;;11.50;;
78854;SDS011;68206;59.956;30.234;2023-04-24T20:31:21;31.08;;;10.75;;
78854;SDS011;68206;59.956;30.234;2023-04-24T20:33:50;30.98;;;10.98;;
78854;SDS011;68206;59.956;30.234;2023-04-24T20:36:18;31.48;;;11.77;;
78854;SDS011;68206;59.956;30.234;2023-04-24T20:38:46;27.20;;;11.00;;
78854;SDS011;68206;59.956;30.234;2023-04-24T20:41:14;35.10;;;10.80;;
78854;SDS011;68206;59.956;30.234;2023-04-24T20:43:42;28.55;;;12.18;;
78854;SDS011;68206;59.956;30.234;2023-04-24T20:46:10;32.80;;;11.48;;
78854;SDS011;68206;59.956;30.234;2023-04-24T20:48:40;29.73;;;10.80;;
78854;SDS011;68206;59.956;30.234;2023-04-24T20:51:08;23.63;;;10.63;;
78854;SDS011;68206;59.956;30.234;2023-04-24T20:53:36;36.13;;;13.05;;
78854;SDS011;68206;59.956;30.234;2023-04-24T20:56:04;31.80;;;11.20;;
78854;SDS011;68206;59.956;30.234;2023-04-24T20:58:34;24.67;;;10.50;;
78854;SDS011;68206;59.956;30.234;2023-04-24T21:01:02;21.95;;;10.55;;
78854;SDS011;68206;59.956;30.234;2023-04-24T21:03:30;25.10;;;11.73;;
78854;SDS011;68206;59.956;30.234;2023-04-24T21:06:00;25.10;;;10.93;;
78854;SDS011;68206;59.956;30.234;2023-04-24T21:08:28;21.50;;;10.52;;
78854;SDS011;68206;59.956;30.234;2023-04-24T21:10:56;23.83;;;11.65;;
78854;SDS011;68206;59.956;30.234;2023-04-24T21:13:24;29.25;;;11.98;;
78854;SDS011;68206;59.956;30.234;2023-04-24T21:15:52;23.25;;;10.52;;
78854;SDS011;68206;59.956;30.234;2023-04-24T21:18:20;24.23;;;11.27;;
78854;SDS011;68206;59.956;30.234;2023-04-24T21:20:48;22.48;;;11.02;;
78854;SDS011;68206;59.956;30.234;2023-04-24T21:23:18;27.27;;;11.02;;
78854;SDS011;68206;59.956;30.234;2023-04-24T21:25:47;22.15;;;11.55;;
78854;SDS011;68206;59.956;30.234;2023-04-24T21:28:15;22.92;;;11.27;;
78854;SDS011;68206;59.956;30.234;2023-04-24T21:30:43;23.45;;;10.60;;
78854;SDS011;68206;59.956;30.234;2023-04-24T21:33:11;30.30;;;10.48;;
78854;SDS011;68206;59.956;30.234;2023-04-24T21:35:39;28.42;;;11.30;;
78854;SDS011;68206;59.956;30.234;2023-04-24T21:38:07;20.90;;;10.95;;
78854;SDS011;68206;59.956;30.234;2023-04-24T21:40:36;28.25;;;11.27;;
78854;SDS011;68206;59.956;30.234;2023-04-24T21:43:04;27.75;;;11.35;;
78854;SDS011;68206;59.956;30.234;2023-04-24T21:45:33;26.17;;;10.85;;
78854;SDS011;68206;59.956;30.234;2023-04-24T21:48:01;22.15;;;10.30;;
78854;SDS011;68206;59.956;30.234;2023-04-24T21:50:29;24.02;;;12.00;;
78854;SDS011;68206;59.956;30.234;2023-04-24T21:52:57;21.38;;;10.70;;
78854;SDS011;68206;59.956;30.234;2023-04-24T21:55:25;23.40;;;11.95;;
78854;SDS011;68206;59.956;30.234;2023-04-24T21:57:55;25.23;;;10.65;;
78854;SDS011;68206;59.956;30.234;2023-04-24T22:00:23;27.30;;;11.60;;
78854;SDS011;68206;59.956;30.234;2023-04-24T22:02:51;30.88;;;11.77;;
78854;SDS011;68206;59.956;30.234;2023-04-24T22:05:19;21.33;;;12.20;;
78854;SDS011;68206;59.956;30.234;2023-04-24T22:07:47;25.92;;;11.30;;
78854;SDS011;68206;59.956;30.234;2023-04-24T22:10:16;32.28;;;11.52;;
78854;SDS011;68206;59.956;30.234;2023-04-24T22:12:44;30.38;;;12.10;;
78854;SDS011;68206;59.956;30.234;2023-04-24T22:15:14;31.40;;;15.27;;
78854;SDS011;68206;59.956;30.234;2023-04-24T22:17:42;22.85;;;13.15;;
78854;SDS011;68206;59.956;30.234;2023-04-24T22:20:11;34.00;;;14.80;;
78854;SDS011;68206;59.956;30.234;2023-04-24T22:22:39;32.95;;;14.32;;
78854;SDS011;68206;59.956;30.234;2023-04-24T22:25:08;28.42;;;12.95;;
78854;SDS011;68206;59.956;30.234;2023-04-24T22:27:36;25.10;;;13.52;;
78854;SDS011;68206;59.956;30.234;2023-04-24T22:30:05;29.27;;;13.45;;
78854;SDS011;68206;59.956;30.234;2023-04-24T22:32:36;34.28;;;12.40;;
78854;SDS011;68206;59.956;30.234;2023-04-24T22:35:05;28.13;;;12.15;;
78854;SDS011;68206;59.956;30.234;2023-04-24T22:37:33;33.38;;;13.45;;
78854;SDS011;68206;59.956;30.234;2023-04-24T22:40:01;28.90;;;12.77;;
78854;SDS011;68206;59.956;30.234;2023-04-24T22:42:31;25.45;;;11.15;;
78854;SDS011;68206;59.956;30.234;2023-04-24T22:44:59;31.30;;;11.75;;
78854;SDS011;68206;59.956;30.234;2023-04-24T22:47:28;23.33;;;11.25;;
78854;SDS011;68206;59.956;30.234;2023-04-24T22:49:58;21.27;;;12.18;;
78854;SDS011;68206;59.956;30.234;2023-04-24T22:52:26;25.63;;;12.30;;
78854;SDS011;68206;59.956;30.234;2023-04-24T22:54:56;31.15;;;11.73;;
78854;SDS011;68206;59.956;30.234;2023-04-24T22:57:24;29.83;;;11.88;;
78854;SDS011;68206;59.956;30.234;2023-04-24T22:59:52;21.75;;;11.43;;
78854;SDS011;68206;59.956;30.234;2023-04-24T23:02:20;22.02;;;13.07;;
78854;SDS011;68206;59.956;30.234;2023-04-24T23:04:48;28.83;;;12.23;;
78854;SDS011;68206;59.956;30.234;2023-04-24T23:07:18;22.55;;;11.40;;
78854;SDS011;68206;59.956;30.234;2023-04-24T23:09:46;18.85;;;10.63;;
78854;SDS011;68206;59.956;30.234;2023-04-24T23:12:14;25.88;;;12.75;;
78854;SDS011;68206;59.956;30.234;2023-04-24T23:14:42;28.30;;;12.23;;
78854;SDS011;68206;59.956;30.234;2023-04-24T23:17:11;24.98;;;11.70;;
78854;SDS011;68206;59.956;30.234;2023-04-24T23:19:39;26.80;;;12.15;;
78854;SDS011;68206;59.956;30.234;2023-04-24T23:22:07;25.13;;;11.27;;
78854;SDS011;68206;59.956;30.234;2023-04-24T23:24:36;22.70;;;12.75;;
78854;SDS011;68206;59.956;30.234;2023-04-24T23:27:05;22.08;;;12.00;;
78854;SDS011;68206;59.956;30.234;2023-04-24T23:29:33;24.25;;;11.48;;
78854;SDS011;68206;59.956;30.234;2023-04-24T23:32:01;22.40;;;10.93;;
78854;SDS011;68206;59.956;30.234;2023-04-24T23:34:29;29.55;;;13.52;;
78854;SDS011;68206;59.956;30.234;2023-04-24T23:36:59;21.48;;;11.02;;
78854;SDS011;68206;59.956;30.234;2023-04-24T23:39:27;22.27;;;13.85;;
78854;SDS011;68206;59.956;30.234;2023-04-24T23:41:57;34.42;;;13.05;;
78854;SDS011;68206;59.956;30.234;2023-04-24T23:44:28;22.63;;;11.02;;
78854;SDS011;68206;59.956;30.234;2023-04-24T23:46:56;24.83;;;12.00;;
78854;SDS011;68206;59.956;30.234;2023-04-24T23:49:24;20.27;;;11.57;;
78854;SDS011;68206;59.956;30.234;2023-04-24T23:51:52;22.85;;;12.25;;
78854;SDS011;68206;59.956;30.234;2023-04-24T23:54:22;21.23;;;12.55;;
78854;SDS011;68206;59.956;30.234;2023-04-24T23:56:50;27.40;;;14.13;;
78854;SDS011;68206;59.956;30.234;2023-04-24T23:59:19;23.73;;;12.70;;
